Time;durP1;ratioP1;P1;durP2;ratioP2;P2;SDS_P1;SDS_P2;PMS_P1;PMS_P2;Temp;Humidity;BMP_temperature;BMP_pressure;BME280_temperature;BME280_humidity;BME280_pressure;Samples;Min_cycle;Max_cycle;Signal;HPM_P1;HPM_P2
2024/01/03 00:00:20;;;;;;;3.70;2.33;;;8.60;99.90;;;;;;5089973;28;20414;-43
2024/01/03 00:02:47;;;;;;;2.67;2.00;;;8.50;99.90;;;;;;5090768;28;20030;-46
2024/01/03 00:05:12;;;;;;;6.20;1.80;;;8.50;99.90;;;;;;5091135;28;20091;-45
2024/01/03 00:07:38;;;;;;;7.50;1.83;;;8.50;99.90;;;;;;5090344;28;20151;-44
2024/01/03 00:10:15;;;;;;;8.00;2.10;;;8.50;99.90;;;;;;5089783;28;20020;-44
2024/01/03 00:12:40;;;;;;;6.03;2.40;;;8.50;99.90;;;;;;5091074;28;20020;-42
2024/01/03 00:15:38;;;;;;;7.18;2.17;;;8.50;99.90;;;;;;5091317;28;20065;-42
2024/01/03 00:18:04;;;;;;;4.57;1.85;;;8.50;99.90;;;;;;5090428;28;20020;-41
2024/01/03 00:20:32;;;;;;;5.20;2.08;;;8.50;99.90;;;;;;5090853;28;20023;-42
2024/01/03 00:22:58;;;;;;;6.32;1.63;;;8.50;99.90;;;;;;5089579;28;20481;-41
2024/01/03 00:25:29;;;;;;;11.63;2.08;;;8.50;99.90;;;;;;5090777;28;20470;-41
2024/01/03 00:27:56;;;;;;;4.72;1.73;;;8.60;99.90;;;;;;5088985;28;20020;-42
2024/01/03 00:30:22;;;;;;;4.32;2.00;;;8.60;99.90;;;;;;5091364;28;20077;-42
2024/01/03 00:32:48;;;;;;;8.77;2.03;;;8.50;99.90;;;;;;5090825;28;20056;-41
2024/01/03 00:35:14;;;;;;;3.28;1.80;;;8.50;99.90;;;;;;5091788;28;20023;-41
2024/01/03 00:37:44;;;;;;;4.72;1.88;;;8.60;99.90;;;;;;5089364;28;20075;-41
2024/01/03 00:40:30;;;;;;;14.07;3.30;;;8.60;99.90;;;;;;5091199;28;20016;-44
2024/01/03 00:42:56;;;;;;;3.75;1.67;;;8.60;99.90;;;;;;5090963;28;20239;-44
2024/01/03 00:45:21;;;;;;;5.47;1.95;;;8.60;99.90;;;;;;5091272;28;20630;-41
2024/01/03 00:47:47;;;;;;;6.78;2.75;;;8.60;99.90;;;;;;5089386;28;20077;-41
2024/01/03 00:50:14;;;;;;;5.03;1.27;;;8.60;99.90;;;;;;5091905;28;20469;-43
2024/01/03 00:52:39;;;;;;;5.13;1.55;;;8.60;99.90;;;;;;5090449;28;20424;-41
2024/01/03 00:55:06;;;;;;;5.55;1.58;;;8.60;99.90;;;;;;5091141;28;20069;-43
2024/01/03 00:57:31;;;;;;;4.75;1.73;;;8.60;99.90;;;;;;5090800;28;20523;-42
2024/01/03 00:59:57;;;;;;;5.75;1.42;;;8.60;99.90;;;;;;5090768;28;20019;-45
2024/01/03 01:02:22;;;;;;;4.43;1.95;;;8.60;99.90;;;;;;5090638;28;20023;-43
2024/01/03 01:04:48;;;;;;;6.28;1.98;;;8.60;99.90;;;;;;5090563;28;20642;-45
2024/01/03 01:07:14;;;;;;;3.13;1.80;;;8.60;99.90;;;;;;5090036;28;20575;-44
2024/01/03 01:09:39;;;;;;;6.38;2.03;;;8.70;99.90;;;;;;5090524;28;20020;-44
2024/01/03 01:12:05;;;;;;;6.97;2.13;;;8.60;99.90;;;;;;5091798;28;20374;-43
2024/01/03 01:14:30;;;;;;;3.08;1.77;;;8.60;99.90;;;;;;5091081;28;20020;-43
2024/01/03 01:16:56;;;;;;;9.55;2.25;;;8.60;99.90;;;;;;5095062;28;20030;-41
2024/01/03 01:19:22;;;;;;;13.02;2.15;;;8.60;99.90;;;;;;5088851;28;20122;-45
2024/01/03 01:21:47;;;;;;;4.25;2.00;;;8.60;99.90;;;;;;5090088;28;20024;-42
2024/01/03 01:24:13;;;;;;;10.68;2.03;;;8.60;99.90;;;;;;5090488;28;20423;-44
2024/01/03 01:26:39;;;;;;;8.63;2.55;;;8.60;99.90;;;;;;5089519;28;20127;-42
2024/01/03 01:29:05;;;;;;;6.63;2.13;;;8.60;99.90;;;;;;5091713;28;20468;-44
2024/01/03 01:31:31;;;;;;;13.75;2.10;;;8.60;99.90;;;;;;5091109;28;20051;-45
2024/01/03 01:33:56;;;;;;;8.35;2.10;;;8.60;99.90;;;;;;5091070;28;20058;-43
2024/01/03 01:36:22;;;;;;;11.23;2.75;;;8.50;99.90;;;;;;5090340;28;20031;-45
2024/01/03 01:38:48;;;;;;;5.78;2.33;;;8.50;99.90;;;;;;5091119;28;20068;-42
2024/01/03 01:41:13;;;;;;;10.73;2.63;;;8.50;99.90;;;;;;5090673;28;20020;-44
2024/01/03 01:43:39;;;;;;;8.68;2.60;;;8.50;99.90;;;;;;5091148;28;20024;-42
2024/01/03 01:46:05;;;;;;;15.55;2.30;;;8.40;99.90;;;;;;5091576;28;20425;-46
2024/01/03 01:48:31;;;;;;;13.75;2.70;;;8.40;99.90;;;;;;5090986;28;20546;-42
2024/01/03 01:50:57;;;;;;;11.70;2.45;;;8.40;99.90;;;;;;5089706;28;20485;-45
2024/01/03 01:53:22;;;;;;;9.88;2.65;;;8.40;99.90;;;;;;5089467;28;20098;-46
2024/01/03 01:55:48;;;;;;;27.75;2.70;;;8.40;99.90;;;;;;5091214;28;20047;-46
2024/01/03 01:58:14;;;;;;;22.63;3.15;;;8.40;99.90;;;;;;5092192;28;20030;-43
2024/01/03 02:00:41;;;;;;;22.35;2.65;;;8.40;99.90;;;;;;5091310;28;20028;-47
2024/01/03 02:03:08;;;;;;;15.15;2.10;;;8.30;99.90;;;;;;5092919;28;20034;-44
2024/01/03 02:05:37;;;;;;;22.25;2.75;;;8.30;99.90;;;;;;5084790;28;20067;-43
2024/01/03 02:08:08;;;;;;;20.17;2.63;;;8.30;99.90;;;;;;5091602;28;20016;-44
2024/01/03 02:10:33;;;;;;;;;;;8.30;99.90;;;;;;5091885;28;20024;-47
2024/01/03 02:12:59;;;;;;;15.95;2.58;;;8.30;99.90;;;;;;5091464;28;19904;-42
2024/01/03 02:15:27;;;;;;;8.40;2.40;;;8.30;99.90;;;;;;5092508;28;20020;-43
2024/01/03 02:17:54;;;;;;;18.92;2.83;;;8.10;99.90;;;;;;5090701;28;20020;-43
2024/01/03 02:20:20;;;;;;;13.50;2.03;;;8.20;99.90;;;;;;5092716;28;20032;-42
2024/01/03 02:22:46;;;;;;;22.08;3.90;;;8.20;99.90;;;;;;5092006;28;20023;-44
2024/01/03 02:25:11;;;;;;;21.45;3.58;;;8.20;99.90;;;;;;5092931;28;20016;-45
2024/01/03 02:27:37;;;;;;;11.80;2.92;;;8.20;99.90;;;;;;5091166;28;20012;-47
2024/01/03 02:30:04;;;;;;;14.35;3.42;;;8.20;99.90;;;;;;5092133;28;20020;-47
2024/01/03 02:32:30;;;;;;;13.85;2.60;;;8.20;99.90;;;;;;5091263;28;20034;-42
2024/01/03 02:34:55;;;;;;;19.08;2.60;;;8.20;99.90;;;;;;5090953;28;20389;-44
2024/01/03 02:37:22;;;;;;;15.10;3.10;;;8.20;99.90;;;;;;5093044;28;20059;-43
2024/01/03 02:39:49;;;;;;;14.75;2.75;;;8.20;99.90;;;;;;5091493;28;20016;-43
2024/01/03 02:42:15;;;;;;;18.02;2.67;;;8.20;99.90;;;;;;5093674;28;20195;-42
2024/01/03 02:44:40;;;;;;;16.45;2.67;;;8.30;99.90;;;;;;5092188;28;20087;-44
2024/01/03 02:47:06;;;;;;;9.32;2.08;;;8.30;99.90;;;;;;5092997;28;20193;-43
2024/01/03 02:49:31;;;;;;;9.88;2.25;;;8.40;99.90;;;;;;5092034;28;20552;-42
2024/01/03 02:52:00;;;;;;;12.50;2.72;;;8.80;99.90;;;;;;5092011;28;20081;-44
2024/01/03 02:54:26;;;;;;;14.48;2.70;;;8.90;99.90;;;;;;5088735;28;20024;-46
2024/01/03 02:56:53;;;;;;;14.27;2.30;;;9.10;99.90;;;;;;5091888;28;20030;-45
2024/01/03 02:59:19;;;;;;;9.55;2.15;;;9.30;99.90;;;;;;5097399;28;20485;-43
2024/01/03 03:01:45;;;;;;;11.27;2.20;;;9.40;99.90;;;;;;5095448;28;20035;-44
2024/01/03 03:04:11;;;;;;;8.18;2.80;;;9.40;99.90;;;;;;5095772;28;20316;-46
2024/01/03 03:06:36;;;;;;;8.57;2.17;;;9.60;99.90;;;;;;5091982;28;20020;-44
2024/01/03 03:09:02;;;;;;;8.40;1.95;;;9.60;99.90;;;;;;5092618;28;20035;-43
2024/01/03 03:11:28;;;;;;;9.10;2.45;;;9.70;99.90;;;;;;5092151;28;20065;-43
2024/01/03 03:13:53;;;;;;;9.75;2.10;;;9.80;99.90;;;;;;5092478;28;20027;-44
2024/01/03 03:16:19;;;;;;;9.55;2.00;;;9.70;99.90;;;;;;5097796;28;20032;-43
2024/01/03 03:18:45;;;;;;;9.63;1.92;;;9.80;99.90;;;;;;5095351;28;20103;-43
2024/01/03 03:21:11;;;;;;;9.27;2.20;;;9.80;99.90;;;;;;5097787;28;20016;-42
2024/01/03 03:23:36;;;;;;;7.63;1.75;;;10.00;99.90;;;;;;5095865;28;20377;-44
2024/01/03 03:26:03;;;;;;;6.85;1.48;;;10.00;99.90;;;;;;5095936;28;20478;-43
2024/01/03 03:28:31;;;;;;;5.95;1.35;;;10.10;99.90;;;;;;5096543;28;20440;-42
2024/01/03 03:30:56;;;;;;;6.32;1.70;;;10.20;99.90;;;;;;5096087;28;20012;-44
2024/01/03 03:33:22;;;;;;;5.47;1.95;;;10.20;99.90;;;;;;5092736;28;20215;-44
2024/01/03 03:35:48;;;;;;;9.65;1.83;;;10.30;99.90;;;;;;5090578;28;20026;-43
2024/01/03 03:38:13;;;;;;;6.53;1.30;;;10.30;99.90;;;;;;5090410;28;20056;-43
2024/01/03 03:40:39;;;;;;;5.40;1.60;;;10.30;99.90;;;;;;5090804;28;20158;-43
2024/01/03 03:43:04;;;;;;;8.40;2.15;;;10.40;99.90;;;;;;5090704;28;20028;-42
2024/01/03 03:45:31;;;;;;;12.35;2.13;;;10.50;99.90;;;;;;5090669;28;20492;-42
2024/01/03 03:47:57;;;;;;;5.38;1.67;;;10.60;99.90;;;;;;5090101;28;20036;-43
2024/01/03 03:50:22;;;;;;;7.88;1.30;;;10.60;99.90;;;;;;5100119;28;20044;-43
2024/01/03 03:52:48;;;;;;;11.05;2.42;;;10.60;99.90;;;;;;5089959;28;20101;-42
2024/01/03 03:55:15;;;;;;;10.98;1.55;;;10.70;99.90;;;;;;5090332;28;20016;-42
2024/01/03 03:57:40;;;;;;;6.15;1.50;;;10.70;99.90;;;;;;5089630;28;20497;-42
2024/01/03 04:00:07;;;;;;;8.80;2.35;;;10.60;99.90;;;;;;5090257;28;20062;-40
2024/01/03 04:02:33;;;;;;;9.57;2.38;;;10.60;99.90;;;;;;5090178;28;20103;-42
2024/01/03 04:04:58;;;;;;;3.65;1.50;;;10.60;99.90;;;;;;5086902;28;20095;-40
2024/01/03 04:07:24;;;;;;;7.63;2.00;;;10.70;99.90;;;;;;5089563;28;20030;-41
2024/01/03 04:09:50;;;;;;;11.77;2.00;;;10.70;99.90;;;;;;5089750;28;20036;-40
2024/01/03 04:12:15;;;;;;;9.00;2.03;;;10.70;99.90;;;;;;5090425;28;20027;-41
2024/01/03 04:14:41;;;;;;;7.43;1.83;;;10.70;99.90;;;;;;5089744;28;20103;-41
2024/01/03 04:17:06;;;;;;;8.43;1.90;;;10.70;99.90;;;;;;5089809;28;20096;-44
2024/01/03 04:19:32;;;;;;;13.68;2.15;;;10.60;99.90;;;;;;5088961;28;20032;-41
2024/01/03 04:21:58;;;;;;;22.67;2.85;;;10.60;99.90;;;;;;5089665;28;20102;-41
2024/01/03 04:24:24;;;;;;;10.27;2.33;;;10.60;99.90;;;;;;5089551;28;20016;-42
2024/01/03 04:26:53;;;;;;;6.82;1.77;;;10.70;99.90;;;;;;5089549;28;20035;-40
2024/01/03 04:29:19;;;;;;;9.15;3.13;;;10.70;99.90;;;;;;5089823;28;20293;-40
2024/01/03 04:31:44;;;;;;;9.77;2.17;;;10.70;99.90;;;;;;5084278;28;20553;-40
2024/01/03 04:34:10;;;;;;;7.03;1.77;;;10.60;99.90;;;;;;5088747;28;20020;-41
2024/01/03 04:36:36;;;;;;;12.27;2.22;;;10.60;99.90;;;;;;5087708;28;20024;-41
2024/01/03 04:39:01;;;;;;;10.70;1.95;;;10.60;99.90;;;;;;5089060;28;20590;-42
2024/01/03 04:41:27;;;;;;;9.93;1.90;;;10.60;99.90;;;;;;5089429;28;20097;-41
2024/01/03 04:43:53;;;;;;;12.88;1.75;;;10.50;99.90;;;;;;5089665;28;20008;-41
2024/01/03 04:46:18;;;;;;;7.72;2.95;;;10.50;99.90;;;;;;5094404;28;20024;-41
2024/01/03 04:48:44;;;;;;;9.00;2.13;;;10.50;99.90;;;;;;5089027;28;20026;-41
2024/01/03 04:51:10;;;;;;;5.63;1.77;;;10.50;99.90;;;;;;5089267;28;20101;-42
2024/01/03 04:53:36;;;;;;;6.88;1.67;;;10.50;99.90;;;;;;5089296;28;20404;-40
2024/01/03 04:56:02;;;;;;;8.90;2.22;;;10.60;99.90;;;;;;5088727;28;20030;-40
2024/01/03 04:58:28;;;;;;;10.15;1.85;;;10.60;99.90;;;;;;5088114;28;20365;-40
2024/01/03 05:00:53;;;;;;;7.18;1.65;;;10.50;99.90;;;;;;5089136;28;20239;-45
2024/01/03 05:03:20;;;;;;;7.95;2.40;;;10.50;99.90;;;;;;5088756;28;20479;-43
2024/01/03 05:05:46;;;;;;;8.77;1.95;;;10.50;99.90;;;;;;5087364;28;20016;-41
2024/01/03 05:08:15;;;;;;;7.85;2.13;;;10.50;99.90;;;;;;5088031;28;20123;-40
2024/01/03 05:10:41;;;;;;;9.93;2.50;;;10.50;99.90;;;;;;5089061;28;20048;-41
2024/01/03 05:13:07;;;;;;;7.70;1.85;;;10.40;99.90;;;;;;5088878;28;20026;-41
2024/01/03 05:15:32;;;;;;;8.20;2.58;;;10.30;99.90;;;;;;5088800;28;20032;-40
2024/01/03 05:17:58;;;;;;;8.45;1.90;;;10.30;99.90;;;;;;5088093;28;20115;-40
2024/01/03 05:20:24;;;;;;;9.52;1.98;;;10.30;99.90;;;;;;5087724;28;20070;-42
2024/01/03 05:22:49;;;;;;;13.93;2.15;;;10.40;99.90;;;;;;5088956;28;20016;-43
2024/01/03 05:25:15;;;;;;;11.57;2.22;;;10.40;99.90;;;;;;5088441;28;20020;-46
2024/01/03 05:27:41;;;;;;;5.40;1.92;;;10.40;99.90;;;;;;5087895;28;20319;-42
2024/01/03 05:30:07;;;;;;;12.30;2.47;;;10.40;99.90;;;;;;5088242;28;20107;-43
2024/01/03 05:32:32;;;;;;;9.43;2.30;;;10.40;99.90;;;;;;5087929;28;20024;-41
2024/01/03 05:34:58;;;;;;;14.18;2.35;;;10.40;99.90;;;;;;5095355;28;20434;-42
2024/01/03 05:37:23;;;;;;;10.10;2.20;;;10.30;99.90;;;;;;5096058;28;20042;-41
2024/01/03 05:39:50;;;;;;;13.90;2.30;;;10.40;99.90;;;;;;5093195;28;20518;-42
2024/01/03 05:42:16;;;;;;;11.85;1.90;;;10.40;99.90;;;;;;5092674;28;20036;-44
2024/01/03 05:44:43;;;;;;;7.40;1.73;;;10.30;99.90;;;;;;5097350;28;20072;-42
2024/01/03 05:47:08;;;;;;;6.20;1.92;;;10.20;99.90;;;;;;5089654;28;20366;-44
2024/01/03 05:49:34;;;;;;;8.32;2.15;;;10.20;99.90;;;;;;5097724;28;20023;-42
2024/01/03 05:52:01;;;;;;;10.45;2.60;;;10.20;99.90;;;;;;5095976;28;20024;-42
2024/01/03 05:54:27;;;;;;;9.55;1.55;;;10.20;99.90;;;;;;5099247;28;20453;-42
2024/01/03 05:56:53;;;;;;;15.20;2.33;;;10.20;99.90;;;;;;5095872;28;20497;-43
2024/01/03 05:59:20;;;;;;;6.65;2.30;;;10.30;99.90;;;;;;5097130;28;20032;-41
2024/01/03 06:01:45;;;;;;;7.45;1.83;;;10.30;99.90;;;;;;5094924;28;20020;-42
2024/01/03 06:04:13;;;;;;;10.90;2.08;;;10.30;99.90;;;;;;5095011;28;20139;-42
2024/01/03 06:06:38;;;;;;;11.02;2.20;;;10.30;99.90;;;;;;5093648;28;20018;-43
2024/01/03 06:09:04;;;;;;;7.68;1.90;;;10.30;99.90;;;;;;5098696;28;20083;-43
2024/01/03 06:11:30;;;;;;;7.80;2.00;;;10.30;99.90;;;;;;5099152;28;20076;-42
2024/01/03 06:13:55;;;;;;;7.30;1.65;;;10.30;99.90;;;;;;5096045;28;20028;-42
2024/01/03 06:16:21;;;;;;;9.98;2.03;;;10.20;99.90;;;;;;5099198;28;20035;-43
2024/01/03 06:18:47;;;;;;;10.75;1.88;;;10.30;99.90;;;;;;5096497;28;20029;-42
2024/01/03 06:21:12;;;;;;;4.95;1.33;;;10.30;99.90;;;;;;5098094;28;20016;-44
2024/01/03 06:23:39;;;;;;;8.88;2.00;;;10.30;99.90;;;;;;5098227;28;20402;-46
2024/01/03 06:26:08;;;;;;;9.05;1.65;;;10.30;99.90;;;;;;5097315;28;20016;-43
2024/01/03 06:28:33;;;;;;;4.78;1.63;;;10.30;99.90;;;;;;5099084;28;20080;-43
2024/01/03 06:31:04;;;;;;;5.97;1.90;;;10.40;99.90;;;;;;5093098;28;20032;-43
2024/01/03 06:33:29;;;;;;;6.57;1.40;;;10.40;99.90;;;;;;5099014;28;20015;-43
2024/01/03 06:35:57;;;;;;;5.95;1.70;;;10.40;99.90;;;;;;5096830;28;20034;-42
2024/01/03 06:38:22;;;;;;;4.25;1.50;;;10.40;99.90;;;;;;5098463;28;20456;-42
2024/01/03 06:40:48;;;;;;;5.07;1.60;;;10.50;99.90;;;;;;5100460;28;20078;-42
2024/01/03 06:43:14;;;;;;;8.18;1.65;;;10.50;99.90;;;;;;5102739;28;20030;-42
2024/01/03 06:45:40;;;;;;;7.53;1.70;;;10.40;99.90;;;;;;5094749;28;20385;-42
2024/01/03 06:48:07;;;;;;;7.28;2.10;;;10.30;99.90;;;;;;5095106;28;20019;-44
2024/01/03 06:50:32;;;;;;;7.03;2.33;;;10.20;99.90;;;;;;5094347;28;20063;-42
2024/01/03 06:52:58;;;;;;;8.23;1.77;;;10.00;99.90;;;;;;5094155;28;20047;-43
2024/01/03 06:55:23;;;;;;;13.77;1.98;;;10.00;99.90;;;;;;5094102;28;20396;-43
2024/01/03 06:57:49;;;;;;;6.85;1.75;;;9.90;99.90;;;;;;5093774;28;20032;-45
2024/01/03 07:00:15;;;;;;;7.43;1.63;;;9.90;99.90;;;;;;5092241;28;20126;-44
2024/01/03 07:02:41;;;;;;;7.80;1.98;;;9.90;99.90;;;;;;5091166;28;20012;-42
2024/01/03 07:05:10;;;;;;;9.13;1.73;;;10.00;99.90;;;;;;5091311;28;20059;-42
2024/01/03 07:07:36;;;;;;;10.48;1.85;;;10.00;99.90;;;;;;5094466;28;20012;-43
2024/01/03 07:10:02;;;;;;;7.90;2.03;;;9.90;99.90;;;;;;5098526;28;20045;-43
2024/01/03 07:12:28;;;;;;;6.60;1.80;;;9.90;99.90;;;;;;5095662;28;20024;-45
2024/01/03 07:14:54;;;;;;;9.52;1.60;;;9.90;99.90;;;;;;5091258;28;20050;-43
2024/01/03 07:17:19;;;;;;;8.57;1.75;;;9.90;99.90;;;;;;5090940;28;20481;-44
2024/01/03 07:19:45;;;;;;;7.18;1.98;;;10.00;99.90;;;;;;5093994;28;20017;-44
2024/01/03 07:22:10;;;;;;;10.50;2.25;;;10.10;99.90;;;;;;5090480;28;20568;-43
2024/01/03 07:24:39;;;;;;;9.48;1.48;;;10.20;99.90;;;;;;5090747;28;20020;-43
2024/01/03 07:27:05;;;;;;;10.32;1.70;;;10.20;99.90;;;;;;5089031;28;20023;-43
2024/01/03 07:29:33;;;;;;;5.65;1.90;;;10.20;99.90;;;;;;5092266;28;20032;-43
2024/01/03 07:31:59;;;;;;;4.95;1.75;;;10.30;99.90;;;;;;5090366;28;20454;-43
2024/01/03 07:34:26;;;;;;;12.10;2.17;;;10.30;99.90;;;;;;5090294;28;20043;-42
2024/01/03 07:36:51;;;;;;;4.38;2.00;;;10.40;99.90;;;;;;5090101;28;20063;-43
2024/01/03 07:39:17;;;;;;;7.00;1.80;;;10.30;99.90;;;;;;5089738;28;20070;-42
2024/01/03 07:41:46;;;;;;;12.05;2.05;;;10.30;99.90;;;;;;5089591;28;20020;-45
2024/01/03 07:44:11;;;;;;;9.27;1.75;;;10.40;99.90;;;;;;5089000;28;20570;-42
2024/01/03 07:46:37;;;;;;;9.15;1.80;;;10.50;99.90;;;;;;5089809;28;20135;-45
2024/01/03 07:49:03;;;;;;;11.40;1.90;;;10.50;99.90;;;;;;5088281;28;20170;-41
2024/01/03 07:51:29;;;;;;;6.50;1.88;;;10.50;99.90;;;;;;5089944;28;20381;-43
2024/01/03 07:53:54;;;;;;;8.30;1.95;;;10.50;99.90;;;;;;5088541;28;20024;-44
2024/01/03 07:56:20;;;;;;;4.60;1.20;;;10.50;99.90;;;;;;5089474;28;20203;-40
2024/01/03 07:58:46;;;;;;;5.85;1.80;;;10.60;99.90;;;;;;5089207;28;20028;-45
2024/01/03 08:01:11;;;;;;;8.15;1.90;;;10.60;99.90;;;;;;5102054;28;20055;-43
2024/01/03 08:03:37;;;;;;;10.00;2.15;;;10.60;99.90;;;;;;5103332;28;20027;-43
2024/01/03 08:06:03;;;;;;;6.88;1.40;;;10.60;99.90;;;;;;5100355;28;20051;-43
2024/01/03 08:08:28;;;;;;;6.65;2.10;;;10.60;99.90;;;;;;5103099;28;20507;-43
2024/01/03 08:10:54;;;;;;;7.82;1.60;;;10.60;99.90;;;;;;5100818;28;20095;-43
2024/01/03 08:13:20;;;;;;;5.90;1.33;;;10.70;99.90;;;;;;5103213;28;20024;-45
2024/01/03 08:15:46;;;;;;;8.15;2.50;;;10.60;99.90;;;;;;5101903;28;20059;-47
2024/01/03 08:18:11;;;;;;;5.60;1.90;;;10.60;99.90;;;;;;5097908;28;20039;-42
2024/01/03 08:20:38;;;;;;;9.48;1.55;;;10.60;99.90;;;;;;5103647;28;20049;-40
2024/01/03 08:23:03;;;;;;;11.63;1.60;;;10.60;99.90;;;;;;5100946;28;20016;-40
2024/01/03 08:25:29;;;;;;;10.50;2.05;;;10.60;99.90;;;;;;5103652;28;20072;-41
2024/01/03 08:27:55;;;;;;;5.60;1.67;;;10.60;99.90;;;;;;5100518;28;20019;-42
2024/01/03 08:30:20;;;;;;;5.90;1.63;;;10.60;99.90;;;;;;5101867;28;20023;-42
2024/01/03 08:32:46;;;;;;;6.28;1.60;;;10.60;99.90;;;;;;5102036;28;20362;-39
2024/01/03 08:35:11;;;;;;;7.65;1.55;;;10.60;99.90;;;;;;5102091;28;20089;-40
2024/01/03 08:37:37;;;;;;;10.90;1.88;;;10.60;99.90;;;;;;5102896;28;20039;-40
2024/01/03 08:40:03;;;;;;;6.95;1.77;;;10.60;99.90;;;;;;5100403;28;20115;-40
2024/01/03 08:42:29;;;;;;;11.70;2.20;;;10.60;99.90;;;;;;5103551;28;20019;-39
2024/01/03 08:44:54;;;;;;;11.65;2.03;;;10.70;99.90;;;;;;5095276;28;20117;-40
2024/01/03 08:47:20;;;;;;;7.05;1.80;;;10.70;99.90;;;;;;5103086;28;20021;-44
2024/01/03 08:49:46;;;;;;;9.32;2.30;;;10.70;99.90;;;;;;5102712;28;20038;-42
2024/01/03 08:52:12;;;;;;;9.02;1.90;;;10.70;99.90;;;;;;5102245;28;20054;-41
2024/01/03 08:54:39;;;;;;;8.73;1.70;;;10.70;99.90;;;;;;5102910;28;20043;-42
2024/01/03 08:57:04;;;;;;;8.05;1.90;;;10.70;99.90;;;;;;5097734;28;20084;-44
2024/01/03 08:59:30;;;;;;;10.02;1.75;;;10.80;99.90;;;;;;5103354;28;20367;-42
2024/01/03 09:01:58;;;;;;;10.73;2.00;;;10.80;99.90;;;;;;5101448;28;20035;-43
2024/01/03 09:04:24;;;;;;;7.22;1.55;;;10.90;99.90;;;;;;5092423;28;20028;-42
2024/01/03 09:06:53;;;;;;;10.45;1.70;;;10.90;99.90;;;;;;5101954;28;20024;-43
2024/01/03 09:09:19;;;;;;;7.53;1.90;;;10.90;99.90;;;;;;5101034;28;20035;-42
2024/01/03 09:11:44;;;;;;;5.45;2.05;;;10.90;99.90;;;;;;5102700;28;20024;-44
2024/01/03 09:14:10;;;;;;;7.95;1.90;;;10.90;99.90;;;;;;5102861;28;20039;-42
2024/01/03 09:16:36;;;;;;;9.10;1.52;;;10.90;99.90;;;;;;5103733;28;20394;-41
2024/01/03 09:19:02;;;;;;;6.25;1.40;;;10.90;99.90;;;;;;5100282;28;20027;-41
2024/01/03 09:21:28;;;;;;;5.43;1.50;;;10.90;99.90;;;;;;5103836;28;20509;-42
2024/01/03 09:23:54;;;;;;;7.63;1.80;;;10.90;99.90;;;;;;5099952;28;20120;-43
2024/01/03 09:26:20;;;;;;;4.60;1.30;;;10.90;99.90;;;;;;5103134;28;20099;-42
2024/01/03 09:28:47;;;;;;;5.93;1.48;;;10.80;99.90;;;;;;5102655;28;20062;-42
2024/01/03 09:31:13;;;;;;;4.50;1.20;;;10.90;99.90;;;;;;5102083;28;20024;-41
2024/01/03 09:33:38;;;;;;;4.32;1.25;;;10.80;99.90;;;;;;5104459;28;20024;-41
2024/01/03 09:36:05;;;;;;;5.93;1.40;;;10.70;99.90;;;;;;5101162;28;20095;-41
2024/01/03 09:38:30;;;;;;;7.40;1.70;;;10.70;99.90;;;;;;5103282;28;20477;-41
2024/01/03 09:40:58;;;;;;;7.95;1.75;;;10.60;99.90;;;;;;5098025;28;20099;-42
2024/01/03 09:43:23;;;;;;;6.38;1.08;;;10.60;99.90;;;;;;5091846;28;20024;-42
2024/01/03 09:45:50;;;;;;;9.50;1.73;;;10.60;99.90;;;;;;5102540;28;20020;-42
2024/01/03 09:48:16;;;;;;;4.15;1.58;;;10.60;99.90;;;;;;5102103;28;20455;-44
2024/01/03 09:50:41;;;;;;;5.28;1.10;;;10.60;99.90;;;;;;5102661;28;20022;-41
2024/01/03 09:53:08;;;;;;;6.45;1.40;;;10.60;99.90;;;;;;5101192;28;20393;-42
2024/01/03 09:55:35;;;;;;;2.65;1.00;;;10.60;99.90;;;;;;5103692;28;20181;-42
2024/01/03 09:58:01;;;;;;;5.43;1.20;;;10.60;99.90;;;;;;5092435;28;20012;-43
2024/01/03 10:00:30;;;;;;;3.72;1.30;;;10.60;99.90;;;;;;5099683;28;20035;-42
2024/01/03 10:03:07;;;;;;;5.78;1.27;;;10.60;99.90;;;;;;5101909;28;20422;-44
2024/01/03 10:05:33;;;;;;;9.40;1.30;;;10.70;99.90;;;;;;5093717;28;20118;-42
2024/01/03 10:08:00;;;;;;;6.97;1.63;;;10.70;99.90;;;;;;5103223;28;20531;-44
2024/01/03 10:10:33;;;;;;;4.18;1.35;;;10.70;99.90;;;;;;5110483;28;20750;-43
2024/01/03 10:13:19;;;;;;;2.53;0.98;;;10.60;99.90;;;;;;5103038;28;20461;-42
2024/01/03 10:15:46;;;;;;;7.63;1.40;;;10.60;99.90;;;;;;5089576;28;20108;-44
2024/01/03 10:18:14;;;;;;;4.50;0.95;;;10.70;99.90;;;;;;5093863;28;20051;-42
2024/01/03 10:20:40;;;;;;;7.35;1.20;;;10.70;99.90;;;;;;5090948;28;20411;-42
2024/01/03 10:23:11;;;;;;;6.68;1.10;;;10.70;99.90;;;;;;5091393;28;20028;-43
2024/01/03 10:25:37;;;;;;;2.50;0.95;;;10.80;99.90;;;;;;5091388;28;20012;-45
2024/01/03 10:28:05;;;;;;;2.65;0.77;;;10.90;99.90;;;;;;5090807;28;20054;-42
2024/01/03 10:30:31;;;;;;;3.10;1.00;;;10.80;99.90;;;;;;5091660;28;20046;-44
2024/01/03 10:33:09;;;;;;;4.38;1.10;;;10.80;99.90;;;;;;5093115;28;20027;-44
2024/01/03 10:35:44;;;;;;;4.97;1.30;;;10.70;99.90;;;;;;5090627;28;20032;-43
2024/01/03 10:38:10;;;;;;;3.67;0.80;;;10.70;99.90;;;;;;5088895;28;20035;-46
2024/01/03 10:40:39;;;;;;;1.17;0.88;;;10.70;99.90;;;;;;5089410;28;20362;-45
2024/01/03 10:43:08;;;;;;;2.05;0.85;;;10.70;99.90;;;;;;5090129;28;20032;-43
2024/01/03 10:45:33;;;;;;;2.92;0.90;;;10.60;99.90;;;;;;5090459;28;20107;-42
2024/01/03 10:47:59;;;;;;;7.32;1.30;;;10.60;99.90;;;;;;5089773;28;20437;-42
2024/01/03 10:50:25;;;;;;;1.85;0.65;;;10.50;99.90;;;;;;5089219;28;20043;-43
2024/01/03 10:52:56;;;;;;;1.13;0.80;;;10.40;99.90;;;;;;5090721;28;20117;-44
2024/01/03 10:55:25;;;;;;;;;;;10.20;99.90;;;;;;5090496;28;20028;-43
2024/01/03 10:58:00;;;;;;;2.55;0.65;;;10.10;99.90;;;;;;5104133;28;19952;-42
2024/01/03 11:01:02;;;;;;;3.10;0.95;;;10.00;99.90;;;;;;5087904;28;20155;-42
2024/01/03 11:03:45;;;;;;;2.53;1.20;;;9.80;99.90;;;;;;5104266;27;20325;-43
2024/01/03 11:06:23;;;;;;;1.70;0.77;;;9.70;99.90;;;;;;5104996;28;20012;-42
2024/01/03 11:08:54;;;;;;;3.35;0.82;;;9.60;99.90;;;;;;5108310;28;20024;-42
2024/01/03 11:11:36;;;;;;;4.93;0.90;;;9.40;99.90;;;;;;5104984;28;20032;-42
2024/01/03 11:14:21;;;;;;;6.38;1.63;;;9.40;99.90;;;;;;5088547;28;20024;-42
2024/01/03 11:16:47;;;;;;;2.58;1.00;;;9.40;99.90;;;;;;5088013;28;20015;-44
2024/01/03 11:19:13;;;;;;;4.20;0.90;;;9.30;99.90;;;;;;5091919;28;20023;-42
2024/01/03 11:21:44;;;;;;;4.60;0.98;;;9.20;99.90;;;;;;5108363;28;20016;-42
2024/01/03 11:24:35;;;;;;;3.05;1.33;;;9.20;99.90;;;;;;5099917;28;21520;-41
2024/01/03 11:27:04;;;;;;;4.18;0.90;;;9.20;99.90;;;;;;5106573;28;20465;-42
2024/01/03 11:29:38;;;;;;;2.22;0.90;;;9.20;99.90;;;;;;5103373;28;20035;-44
2024/01/03 11:32:08;;;;;;;3.75;1.30;;;9.10;99.90;;;;;;5103762;28;20422;-44
2024/01/03 11:34:44;;;;;;;2.45;1.27;;;9.10;99.90;;;;;;5102776;28;20028;-44
2024/01/03 11:37:19;;;;;;;1.65;1.10;;;9.00;99.90;;;;;;5094560;28;20516;-43
2024/01/03 11:39:46;;;;;;;5.60;1.75;;;9.10;99.90;;;;;;5101539;28;20049;-42
2024/01/03 11:42:32;;;;;;;3.83;1.15;;;9.10;99.90;;;;;;5105585;28;20016;-42
2024/01/03 11:45:15;;;;;;;3.22;1.30;;;9.10;99.90;;;;;;5105666;28;20019;-42
2024/01/03 11:47:45;;;;;;;2.70;1.00;;;9.20;99.90;;;;;;5097600;28;20414;-42
2024/01/03 11:50:16;;;;;;;4.25;1.05;;;9.20;99.90;;;;;;5106958;28;20106;-42
2024/01/03 11:52:47;;;;;;;5.88;1.20;;;9.20;99.90;;;;;;5108257;28;20407;-42
2024/01/03 11:55:16;;;;;;;;;;;9.20;99.90;;;;;;5107704;28;20081;-43
2024/01/03 11:57:43;;;;;;;2.60;0.90;;;9.10;99.90;;;;;;5108308;28;20156;-43
2024/01/03 12:00:09;;;;;;;4.07;1.15;;;9.10;99.90;;;;;;5107285;28;20481;-43
2024/01/03 12:02:35;;;;;;;3.90;0.98;;;9.10;99.90;;;;;;5108196;28;20301;-42
2024/01/03 12:05:05;;;;;;;4.35;1.20;;;9.10;99.90;;;;;;5106670;28;20023;-42
2024/01/03 12:07:36;;;;;;;3.42;1.10;;;9.10;99.90;;;;;;5102679;28;20024;-42
2024/01/03 12:10:05;;;;;;;3.03;0.70;;;9.20;99.90;;;;;;5102848;28;20028;-43
2024/01/03 12:12:32;;;;;;;4.40;1.20;;;9.20;99.90;;;;;;5088173;28;20020;-42
2024/01/03 12:14:58;;;;;;;5.35;1.70;;;9.30;99.90;;;;;;5097324;28;20033;-44
2024/01/03 12:17:27;;;;;;;5.82;1.35;;;9.30;99.90;;;;;;5084247;28;20094;-44
2024/01/03 12:19:57;;;;;;;5.63;1.30;;;9.30;99.90;;;;;;5101278;28;20123;-42
2024/01/03 12:22:23;;;;;;;6.63;1.38;;;9.30;99.90;;;;;;5091471;28;20197;-43
2024/01/03 12:24:48;;;;;;;7.70;1.63;;;9.40;99.90;;;;;;5092103;28;20463;-41
2024/01/03 12:27:23;;;;;;;6.18;1.33;;;9.40;99.90;;;;;;5092020;28;20024;-43
2024/01/03 12:29:50;;;;;;;7.75;1.30;;;9.40;99.90;;;;;;5098643;28;20477;-43
2024/01/03 12:32:17;;;;;;;5.55;1.20;;;9.50;99.90;;;;;;5107987;28;20499;-42
2024/01/03 12:34:44;;;;;;;4.63;1.25;;;9.50;99.90;;;;;;5108523;28;20051;-46
2024/01/03 12:37:09;;;;;;;4.43;1.35;;;9.50;99.90;;;;;;5107674;28;20560;-44
2024/01/03 12:39:39;;;;;;;6.28;2.05;;;9.50;99.90;;;;;;5108132;28;20035;-42
2024/01/03 12:42:08;;;;;;;5.07;1.45;;;9.60;99.90;;;;;;5107823;28;20024;-41
2024/01/03 12:44:38;;;;;;;3.22;1.10;;;9.60;99.90;;;;;;5108400;28;20016;-41
2024/01/03 12:47:08;;;;;;;5.72;1.40;;;9.70;99.90;;;;;;5108090;28;20020;-42
2024/01/03 12:49:37;;;;;;;4.88;1.50;;;9.70;99.90;;;;;;5107836;28;20073;-39